Time;durP1;ratioP1;P1;durP2;ratioP2;P2;SDS_P1;SDS_P2;PMS_P1;PMS_P2;Temp;Humidity;BMP_temperature;BMP_pressure;BME280_temperature;BME280_humidity;BME280_pressure;Samples;Min_cycle;Max_cycle;Signal;HPM_P1;HPM_P2
2023/11/29 00:00:33;;;;;;;;;;;;;;;;;;4165015;28;20293;-62
2023/11/29 00:02:34;;;;;;;;;;;;;;;;;;4162540;28;19928;-62
2023/11/29 00:04:38;;;;;;;;;;;;;;;;;;4180460;28;20292;-62
2023/11/29 00:06:39;;;;;;;;;;;;;;;;;;4180400;28;19920;-61
2023/11/29 00:08:41;;;;;;;;;;;;;;;;;;4180237;28;20015;-62
2023/11/29 00:10:43;;;;;;;;;;;;;;;;;;4182812;28;19931;-62
2023/11/29 00:12:44;;;;;;;;;;;;;;;;;;4183542;28;19921;-62
2023/11/29 00:14:46;;;;;;;;;;;;;;;;;;4183372;28;19943;-62
2023/11/29 00:16:47;;;;;;;;;;;;;;;;;;4183239;28;20023;-61
2023/11/29 00:18:53;;;;;;;;;;;;;;;;;;4183570;28;19974;-62
2023/11/29 00:20:54;;;;;;;;;;;;;;;;;;4183187;28;19972;-62
2023/11/29 00:22:58;;;;;;;;;;;;;;;;;;4183129;28;19927;-62
2023/11/29 00:25:02;;;;;;;;;;;;;;;;;;4183025;28;19924;-62
2023/11/29 00:27:04;;;;;;;;;;;;;;;;;;4183219;28;19986;-62
2023/11/29 00:29:06;;;;;;;;;;;;;;;;;;4165154;28;19921;-62
2023/11/29 00:31:07;;;;;;;;;;;;;;;;;;4183160;28;20434;-62
2023/11/29 00:33:09;;;;;;;;;;;;;;;;;;4160609;28;20365;-62
2023/11/29 00:35:10;;;;;;;;;;;;;;;;;;4132652;28;19926;-62
2023/11/29 00:37:12;;;;;;;;;;;;;;;;;;4150075;28;19936;-62
2023/11/29 00:39:13;;;;;;;;;;;;;;;;;;4150177;28;20361;-62
2023/11/29 00:41:15;;;;;;;;;;;;;;;;;;4150084;28;19952;-62
2023/11/29 00:43:16;;;;;;;;;;;;;;;;;;4150213;28;19925;-62
2023/11/29 00:45:18;;;;;;;;;;;;;;;;;;4149841;28;19933;-62
2023/11/29 00:47:19;;;;;;;;;;;;;;;;;;4164675;28;19967;-61
2023/11/29 00:49:21;;;;;;;;;;;;;;;;;;4166420;28;20015;-62
2023/11/29 00:51:23;;;;;;;;;;;;;;;;;;4165652;28;20020;-62
2023/11/29 00:53:24;;;;;;;;;;;;;;;;;;4159730;28;20405;-62
2023/11/29 00:55:26;;;;;;;;;;;;;;;;;;4153379;28;19921;-62
2023/11/29 00:57:35;;;;;;;;;;;;;;;;;;4149849;28;19993;-62
2023/11/29 00:59:36;;;;;;;;;;;;;;;;;;4149872;28;19931;-62
2023/11/29 01:01:38;;;;;;;;;;;;;;;;;;4169592;28;20323;-62
2023/11/29 01:03:39;;;;;;;;;;;;;;;;;;4182344;28;19920;-62
2023/11/29 01:05:41;;;;;;;;;;;;;;;;;;4182464;28;20269;-62
2023/11/29 01:07:43;;;;;;;;;;;;;;;;;;4182830;28;19921;-62
2023/11/29 01:09:46;;;;;;;;;;;;;;;;;;4182294;28;19921;-62
2023/11/29 01:11:48;;;;;;;;;;;;;;;;;;4182338;28;20297;-62
2023/11/29 01:13:49;;;;;;;;;;;;;;;;;;4182581;28;19924;-62
2023/11/29 01:15:51;;;;;;;;;;;;;;;;;;4182496;28;19991;-63
2023/11/29 01:17:53;;;;;;;;;;;;;;;;;;4182578;28;20015;-62
2023/11/29 01:19:54;;;;;;;;;;;;;;;;;;4182408;28;19921;-62
2023/11/29 01:21:56;;;;;;;;;;;;;;;;;;4181313;28;20284;-62
2023/11/29 01:23:58;;;;;;;;;;;;;;;;;;4182434;28;19928;-63
2023/11/29 01:26:00;;;;;;;;;;;;;;;;;;4164650;28;19928;-62
2023/11/29 01:28:03;;;;;;;;;;;;;;;;;;4182535;28;19925;-62
2023/11/29 01:30:05;;;;;;;;;;;;;;;;;;4149122;28;19922;-62
2023/11/29 01:32:08;;;;;;;;;;;;;;;;;;4149302;28;19956;-63
2023/11/29 01:34:10;;;;;;;;;;;;;;;;;;4149117;28;19929;-62
2023/11/29 01:36:12;;;;;;;;;;;;;;;;;;4149306;28;19925;-62
2023/11/29 01:38:13;;;;;;;;;;;;;;;;;;4149293;28;20336;-62
2023/11/29 01:40:15;;;;;;;;;;;;;;;;;;4131561;28;20282;-62
2023/11/29 01:42:17;;;;;;;;;;;;;;;;;;4153434;28;19982;-62
2023/11/29 01:44:18;;;;;;;;;;;;;;;;;;4149112;28;19922;-63
2023/11/29 01:46:20;;;;;;;;;;;;;;;;;;4149134;28;19926;-62
2023/11/29 01:48:21;;;;;;;;;;;;;;;;;;4148960;28;19921;-63
2023/11/29 01:50:25;;;;;;;;;;;;;;;;;;4148780;28;19922;-62
2023/11/29 01:52:26;;;;;;;;;;;;;;;;;;4149075;28;20437;-63
2023/11/29 01:54:28;;;;;;;;;;;;;;;;;;4149100;28;19925;-62
2023/11/29 01:56:30;;;;;;;;;;;;;;;;;;4149066;28;20293;-63
2023/11/29 01:58:31;;;;;;;;;;;;;;;;;;4148242;28;19979;-62
2023/11/29 02:00:33;;;;;;;;;;;;;;;;;;4151564;28;19925;-63
2023/11/29 02:02:34;;;;;;;;;;;;;;;;;;4175545;22;19921;-88
2023/11/29 02:04:36;;;;;;;;;;;;;;;;;;4147114;28;20012;-88
2023/11/29 02:06:37;;;;;;;;;;;;;;;;;;4134452;28;20408;-86
2023/11/29 02:08:39;;;;;;;;;;;;;;;;;;4170843;28;19927;-87
2023/11/29 02:10:40;;;;;;;;;;;;;;;;;;4147550;28;20026;-88
2023/11/29 02:12:42;;;;;;;;;;;;;;;;;;4181718;28;20019;-88
2023/11/29 02:14:44;;;;;;;;;;;;;;;;;;4164108;28;20016;-87
2023/11/29 02:16:45;;;;;;;;;;;;;;;;;;4163802;28;19920;-87
2023/11/29 02:18:47;;;;;;;;;;;;;;;;;;4181526;28;20360;-87
2023/11/29 02:20:48;;;;;;;;;;;;;;;;;;4163450;28;19920;-87
2023/11/29 02:22:50;;;;;;;;;;;;;;;;;;4181637;28;19921;-87
2023/11/29 02:24:51;;;;;;;;;;;;;;;;;;4172240;28;19922;-87
2023/11/29 02:26:53;;;;;;;;;;;;;;;;;;4148871;28;20404;-87
2023/11/29 02:28:54;;;;;;;;;;;;;;;;;;4148696;28;19921;-88
2023/11/29 02:30:56;;;;;;;;;;;;;;;;;;4148287;28;20380;-87
2023/11/29 02:32:58;;;;;;;;;;;;;;;;;;4147129;28;20405;-88
2023/11/29 02:34:59;;;;;;;;;;;;;;;;;;4148646;28;20353;-87
2023/11/29 02:37:04;;;;;;;;;;;;;;;;;;4148581;28;20373;-87
2023/11/29 02:39:05;;;;;;;;;;;;;;;;;;4157173;28;19921;-87
2023/11/29 02:41:07;;;;;;;;;;;;;;;;;;4146615;28;19948;-87
2023/11/29 02:43:08;;;;;;;;;;;;;;;;;;4146016;28;19944;-86
2023/11/29 02:45:10;;;;;;;;;;;;;;;;;;4163318;28;19921;-87
2023/11/29 02:47:12;;;;;;;;;;;;;;;;;;4129344;28;19926;-87
2023/11/29 02:49:13;;;;;;;;;;;;;;;;;;4161767;28;20145;-88
2023/11/29 02:51:15;;;;;;;;;;;;;;;;;;4144949;28;19928;-87
2023/11/29 02:53:17;;;;;;;;;;;;;;;;;;4163332;28;19927;-87
2023/11/29 02:55:22;;;;;;;;;;;;;;;;;;4162542;28;19925;-87
2023/11/29 02:57:24;;;;;;;;;;;;;;;;;;4163406;28;20391;-87
2023/11/29 02:59:25;;;;;;;;;;;;;;;;;;4145753;28;19922;-88
2023/11/29 03:01:27;;;;;;;;;;;;;;;;;;4164425;28;19921;-87
2023/11/29 03:03:29;;;;;;;;;;;;;;;;;;4146885;28;19929;-87
2023/11/29 03:05:30;;;;;;;;;;;;;;;;;;4164749;28;19921;-87
2023/11/29 03:07:32;;;;;;;;;;;;;;;;;;4164087;28;19936;-87
2023/11/29 03:09:33;;;;;;;;;;;;;;;;;;4178101;28;19929;-87
2023/11/29 03:11:35;;;;;;;;;;;;;;;;;;4181205;28;19925;-88
2023/11/29 03:13:36;;;;;;;;;;;;;;;;;;4163554;28;19925;-86
2023/11/29 03:15:38;;;;;;;;;;;;;;;;;;4146996;28;19960;-86
2023/11/29 03:17:40;;;;;;;;;;;;;;;;;;4152916;28;20274;-86
2023/11/29 03:19:41;;;;;;;;;;;;;;;;;;4147050;28;19928;-86
2023/11/29 03:21:43;;;;;;;;;;;;;;;;;;4154879;28;19921;-86
2023/11/29 03:23:44;;;;;;;;;;;;;;;;;;4130568;28;19925;-86
2023/11/29 03:25:46;;;;;;;;;;;;;;;;;;4147033;28;19947;-86
2023/11/29 03:27:48;;;;;;;;;;;;;;;;;;4148297;28;20366;-86
2023/11/29 03:29:49;;;;;;;;;;;;;;;;;;4146936;28;20075;-86
2023/11/29 03:31:51;;;;;;;;;;;;;;;;;;4148004;28;19928;-86
2023/11/29 03:33:52;;;;;;;;;;;;;;;;;;4135629;28;19925;-86
2023/11/29 03:35:54;;;;;;;;;;;;;;;;;;4146882;28;19921;-86
2023/11/29 03:37:55;;;;;;;;;;;;;;;;;;4146632;28;19929;-86
2023/11/29 03:39:57;;;;;;;;;;;;;;;;;;4164173;28;19921;-86
2023/11/29 03:41:59;;;;;;;;;;;;;;;;;;4130484;28;19957;-86
2023/11/29 03:44:00;;;;;;;;;;;;;;;;;;4164252;28;20349;-85
2023/11/29 03:46:02;;;;;;;;;;;;;;;;;;4149940;28;20074;-86
2023/11/29 03:48:03;;;;;;;;;;;;;;;;;;4149782;28;19921;-86
2023/11/29 03:50:05;;;;;;;;;;;;;;;;;;4149974;28;19948;-86
2023/11/29 03:52:07;;;;;;;;;;;;;;;;;;4149837;28;19925;-86
2023/11/29 03:54:08;;;;;;;;;;;;;;;;;;4149931;28;19940;-86
2023/11/29 03:56:10;;;;;;;;;;;;;;;;;;4166245;28;19960;-86
2023/11/29 03:58:11;;;;;;;;;;;;;;;;;;4133577;28;20427;-85
2023/11/29 04:00:14;;;;;;;;;;;;;;;;;;4167079;28;19956;-86
2023/11/29 04:02:15;;;;;;;;;;;;;;;;;;4149286;28;20030;-86
2023/11/29 04:04:17;;;;;;;;;;;;;;;;;;4132748;28;19922;-86
2023/11/29 04:06:18;;;;;;;;;;;;;;;;;;4149748;28;20387;-86
2023/11/29 04:08:20;;;;;;;;;;;;;;;;;;4136642;28;20396;-86
2023/11/29 04:10:22;;;;;;;;;;;;;;;;;;4165672;28;20454;-86
2023/11/29 04:12:24;;;;;;;;;;;;;;;;;;4183478;28;19925;-86
2023/11/29 04:14:25;;;;;;;;;;;;;;;;;;4165984;28;19983;-86
2023/11/29 04:16:29;;;;;;;;;;;;;;;;;;4164879;28;19921;-86
2023/11/29 04:18:31;;;;;;;;;;;;;;;;;;4151892;28;20376;-86
2023/11/29 04:20:35;;;;;;;;;;;;;;;;;;4150476;28;19921;-85
2023/11/29 04:22:38;;;;;;;;;;;;;;;;;;4149447;28;20012;-87
2023/11/29 04:24:39;;;;;;;;;;;;;;;;;;4149194;28;19925;-86
2023/11/29 04:26:41;;;;;;;;;;;;;;;;;;4132946;28;19961;-86
2023/11/29 04:28:43;;;;;;;;;;;;;;;;;;4132914;28;20012;-85
2023/11/29 04:30:44;;;;;;;;;;;;;;;;;;4150349;28;19925;-86
2023/11/29 04:32:46;;;;;;;;;;;;;;;;;;4147662;28;20305;-86
2023/11/29 04:34:47;;;;;;;;;;;;;;;;;;4166848;28;19928;-86
2023/11/29 04:36:51;;;;;;;;;;;;;;;;;;4166787;28;19921;-85
2023/11/29 04:38:52;;;;;;;;;;;;;;;;;;4132548;28;19921;-85
2023/11/29 04:40:54;;;;;;;;;;;;;;;;;;4166643;28;19957;-86
2023/11/29 04:42:56;;;;;;;;;;;;;;;;;;4132636;28;20393;-86
2023/11/29 04:44:57;;;;;;;;;;;;;;;;;;4166666;28;19960;-86
2023/11/29 04:46:59;;;;;;;;;;;;;;;;;;4148878;28;19922;-86
2023/11/29 04:49:00;;;;;;;;;;;;;;;;;;4166519;28;20422;-86
2023/11/29 04:51:04;;;;;;;;;;;;;;;;;;4148828;28;20431;-85
2023/11/29 04:53:06;;;;;;;;;;;;;;;;;;4149075;28;20336;-86
2023/11/29 04:55:07;;;;;;;;;;;;;;;;;;4166468;28;19967;-85
2023/11/29 04:57:09;;;;;;;;;;;;;;;;;;4147878;28;20012;-85
2023/11/29 04:59:11;;;;;;;;;;;;;;;;;;4148674;28;19921;-85
2023/11/29 05:01:12;;;;;;;;;;;;;;;;;;4148165;28;19928;-85
2023/11/29 05:03:14;;;;;;;;;;;;;;;;;;4148138;28;19995;-85
2023/11/29 05:05:16;;;;;;;;;;;;;;;;;;4165053;28;20734;-86
2023/11/29 05:07:18;;;;;;;;;;;;;;;;;;4139209;28;20016;-86
2023/11/29 05:09:19;;;;;;;;;;;;;;;;;;4153614;28;19972;-85
2023/11/29 05:11:21;;;;;;;;;;;;;;;;;;4147811;28;19921;-85
2023/11/29 05:13:23;;;;;;;;;;;;;;;;;;4144779;28;20325;-85
2023/11/29 05:15:24;;;;;;;;;;;;;;;;;;4115302;28;19929;-85
2023/11/29 05:17:32;;;;;;;;;;;;;;;;;;4132157;28;19921;-85
2023/11/29 05:19:34;;;;;;;;;;;;;;;;;;4147814;28;19979;-86
2023/11/29 05:21:35;;;;;;;;;;;;;;;;;;4147535;28;20017;-86
2023/11/29 05:23:37;;;;;;;;;;;;;;;;;;4149605;28;19936;-85
2023/11/29 05:25:39;;;;;;;;;;;;;;;;;;4132081;28;19922;-85
2023/11/29 05:27:40;;;;;;;;;;;;;;;;;;4152392;28;19921;-85
2023/11/29 05:29:42;;;;;;;;;;;;;;;;;;4164436;28;19927;-85
2023/11/29 05:31:45;;;;;;;;;;;;;;;;;;4132133;28;19964;-85
2023/11/29 05:33:47;;;;;;;;;;;;;;;;;;4148587;28;19925;-86
2023/11/29 05:35:49;;;;;;;;;;;;;;;;;;4160923;28;20411;-86
2023/11/29 05:37:51;;;;;;;;;;;;;;;;;;4165893;28;19920;-85
2023/11/29 05:39:55;;;;;;;;;;;;;;;;;;4165786;28;20369;-86
2023/11/29 05:41:56;;;;;;;;;;;;;;;;;;4151980;28;19975;-86
2023/11/29 05:43:58;;;;;;;;;;;;;;;;;;4181441;28;19925;-85
2023/11/29 05:45:59;;;;;;;;;;;;;;;;;;4164232;28;20019;-85
2023/11/29 05:48:02;;;;;;;;;;;;;;;;;;4147969;28;19921;-86
2023/11/29 05:50:05;;;;;;;;;;;;;;;;;;4181835;28;19928;-86
2023/11/29 05:52:06;;;;;;;;;;;;;;;;;;4182153;28;19927;-86
2023/11/29 05:54:08;;;;;;;;;;;;;;;;;;4164420;28;20301;-85
2023/11/29 05:56:10;;;;;;;;;;;;;;;;;;4180379;28;19921;-85
2023/11/29 05:58:11;;;;;;;;;;;;;;;;;;4138747;28;19921;-86
2023/11/29 06:00:13;;;;;;;;;;;;;;;;;;4131536;28;20448;-86
2023/11/29 06:02:24;;;;;;;;;;;;;;;;;;4154258;28;19925;-86
2023/11/29 06:04:26;;;;;;;;;;;;;;;;;;4163252;28;19941;-86
2023/11/29 06:06:27;;;;;;;;;;;;;;;;;;4147815;28;19976;-86
2023/11/29 06:08:29;;;;;;;;;;;;;;;;;;4169429;28;19921;-86
2023/11/29 06:10:30;;;;;;;;;;;;;;;;;;4161809;28;19929;-86
2023/11/29 06:12:35;;;;;;;;;;;;;;;;;;4131339;28;19980;-84
2023/11/29 06:14:37;;;;;;;;;;;;;;;;;;4148470;28;19921;-86
2023/11/29 06:16:39;;;;;;;;;;;;;;;;;;4130513;28;19922;-86
2023/11/29 06:18:40;;;;;;;;;;;;;;;;;;4147744;28;20281;-86
2023/11/29 06:20:42;;;;;;;;;;;;;;;;;;4148908;28;19921;-86
2023/11/29 06:22:43;;;;;;;;;;;;;;;;;;4148811;28;20183;-86
2023/11/29 06:24:45;;;;;;;;;;;;;;;;;;4141461;28;19925;-86
2023/11/29 06:26:47;;;;;;;;;;;;;;;;;;4131090;28;19929;-86
2023/11/29 06:28:49;;;;;;;;;;;;;;;;;;4163425;28;20388;-86
2023/11/29 06:30:54;;;;;;;;;;;;;;;;;;4151437;28;19921;-86
2023/11/29 06:32:56;;;;;;;;;;;;;;;;;;4147574;28;19952;-86
2023/11/29 06:34:57;;;;;;;;;;;;;;;;;;4131006;28;20408;-86
2023/11/29 06:36:59;;;;;;;;;;;;;;;;;;4147362;28;19987;-86
2023/11/29 06:39:01;;;;;;;;;;;;;;;;;;4147518;28;20374;-86
2023/11/29 06:41:02;;;;;;;;;;;;;;;;;;4147173;28;19921;-86
2023/11/29 06:43:04;;;;;;;;;;;;;;;;;;4146594;28;20344;-87
2023/11/29 06:45:05;;;;;;;;;;;;;;;;;;4165019;28;20364;-90
2023/11/29 06:47:07;;;;;;;;;;;;;;;;;;4146521;28;20348;-91
2023/11/29 06:49:11;;;;;;;;;;;;;;;;;;4131138;28;20020;-90
2023/11/29 06:51:13;;;;;;;;;;;;;;;;;;4146793;28;20448;-90
2023/11/29 06:53:15;;;;;;;;;;;;;;;;;;4146972;28;19964;-90
2023/11/29 06:55:17;;;;;;;;;;;;;;;;;;4147174;28;19977;-90
2023/11/29 06:57:19;;;;;;;;;;;;;;;;;;4130811;28;20006;-90
2023/11/29 06:59:20;;;;;;;;;;;;;;;;;;4147231;28;19922;-91
2023/11/29 07:01:22;;;;;;;;;;;;;;;;;;4146641;28;19925;-90
2023/11/29 07:03:26;;;;;;;;;;;;;;;;;;4146681;28;20127;-90
2023/11/29 07:05:28;;;;;;;;;;;;;;;;;;4130702;28;19968;-91
2023/11/29 07:07:31;;;;;;;;;;;;;;;;;;4147192;28;20025;-91
2023/11/29 07:09:33;;;;;;;;;;;;;;;;;;4160265;28;19972;-91
2023/11/29 07:11:36;;;;;;;;;;;;;;;;;;4146784;28;19922;-90
2023/11/29 07:13:38;;;;;;;;;;;;;;;;;;4179876;28;19931;-90
2023/11/29 07:15:39;;;;;;;;;;;;;;;;;;4180887;28;19978;-90
2023/11/29 07:17:41;;;;;;;;;;;;;;;;;;4146851;28;19925;-91
2023/11/29 07:19:43;;;;;;;;;;;;;;;;;;4146358;28;19921;-90
2023/11/29 07:21:44;;;;;;;;;;;;;;;;;;4150361;28;19932;-91
2023/11/29 07:23:46;;;;;;;;;;;;;;;;;;4166625;28;19921;-91
2023/11/29 07:25:48;;;;;;;;;;;;;;;;;;4167701;28;19921;-91
2023/11/29 07:27:49;;;;;;;;;;;;;;;;;;4133745;28;20456;-90
2023/11/29 07:29:51;;;;;;;;;;;;;;;;;;4149574;28;19929;-91
2023/11/29 07:31:54;;;;;;;;;;;;;;;;;;4133427;28;19921;-91
2023/11/29 07:33:56;;;;;;;;;;;;;;;;;;4133175;28;19922;-90
2023/11/29 07:35:59;;;;;;;;;;;;;;;;;;4166224;28;19921;-90
2023/11/29 07:38:01;;;;;;;;;;;;;;;;;;4167746;28;20304;-91
2023/11/29 07:40:03;;;;;;;;;;;;;;;;;;4167634;28;19931;-90
2023/11/29 07:42:04;;;;;;;;;;;;;;;;;;4133706;28;20373;-91
2023/11/29 07:44:06;;;;;;;;;;;;;;;;;;4150053;28;20394;-90
2023/11/29 07:46:08;;;;;;;;;;;;;;;;;;4150089;28;20025;-91
2023/11/29 07:48:09;;;;;;;;;;;;;;;;;;4133140;28;20372;-91
2023/11/29 07:50:14;;;;;;;;;;;;;;;;;;4149637;28;19963;-92
2023/11/29 07:52:16;;;;;;;;;;;;;;;;;;4132958;28;19972;-91
2023/11/29 07:54:17;;;;;;;;;;;;;;;;;;4166835;28;19920;-91
2023/11/29 07:56:20;;;;;;;;;;;;;;;;;;4149706;28;20356;-87
2023/11/29 07:58:21;;;;;;;;;;;;;;;;;;4165455;28;19960;-88
2023/11/29 08:00:28;;;;;;;;;;;;;;;;;;4167075;28;19925;-87
2023/11/29 08:02:30;;;;;;;;;;;;;;;;;;4149143;28;19921;-88
2023/11/29 08:04:32;;;;;;;;;;;;;;;;;;4166035;28;20430;-87
2023/11/29 08:06:34;;;;;;;;;;;;;;;;;;4167275;28;19952;-87
2023/11/29 08:08:35;;;;;;;;;;;;;;;;;;4172821;28;19927;-87
2023/11/29 08:10:37;;;;;;;;;;;;;;;;;;4183604;28;19931;-88
2023/11/29 08:12:39;;;;;;;;;;;;;;;;;;4165962;28;19921;-87
2023/11/29 08:14:40;;;;;;;;;;;;;;;;;;4165858;28;19921;-87
2023/11/29 08:16:42;;;;;;;;;;;;;;;;;;4158996;28;20411;-87
2023/11/29 08:18:45;;;;;;;;;;;;;;;;;;4167079;28;19921;-87
2023/11/29 08:20:46;;;;;;;;;;;;;;;;;;4132912;28;19925;-88
2023/11/29 08:22:50;;;;;;;;;;;;;;;;;;4149710;28;19925;-87
2023/11/29 08:24:51;;;;;;;;;;;;;;;;;;4167029;28;20300;-88
2023/11/29 08:26:53;;;;;;;;;;;;;;;;;;4132889;28;19922;-88
2023/11/29 08:28:54;;;;;;;;;;;;;;;;;;4149379;28;19992;-87
2023/11/29 08:30:56;;;;;;;;;;;;;;;;;;4148806;28;19921;-87
2023/11/29 08:32:58;;;;;;;;;;;;;;;;;;4166701;28;19963;-87
2023/11/29 08:34:59;;;;;;;;;;;;;;;;;;4166766;28;19929;-87
2023/11/29 08:37:01;;;;;;;;;;;;;;;;;;4132750;28;19926;-87
2023/11/29 08:39:02;;;;;;;;;;;;;;;;;;4166741;28;19975;-87
2023/11/29 08:41:04;;;;;;;;;;;;;;;;;;4166625;28;19925;-87
2023/11/29 08:43:06;;;;;;;;;;;;;;;;;;4166361;28;19927;-87
2023/11/29 08:45:15;;;;;;;;;;;;;;;;;;4166671;28;19924;-87
2023/11/29 08:47:17;;;;;;;;;;;;;;;;;;4166420;28;19932;-87
2023/11/29 08:49:19;;;;;;;;;;;;;;;;;;4132564;28;20394;-87
2023/11/29 08:51:21;;;;;;;;;;;;;;;;;;4166618;28;20008;-87
2023/11/29 08:53:22;;;;;;;;;;;;;;;;;;4166487;28;19921;-87
2023/11/29 08:55:35;;;;;;;;;;;;;;;;;;4166578;28;19982;-87
2023/11/29 08:57:36;;;;;;;;;;;;;;;;;;4149056;28;20328;-88
2023/11/29 08:59:38;;;;;;;;;;;;;;;;;;4153301;28;20000;-87
2023/11/29 09:01:40;;;;;;;;;;;;;;;;;;4170558;28;19948;-87
2023/11/29 09:03:41;;;;;;;;;;;;;;;;;;4182319;28;20008;-87
2023/11/29 09:05:43;;;;;;;;;;;;;;;;;;4182876;28;19971;-90
2023/11/29 09:07:45;;;;;;;;;;;;;;;;;;4175343;28;19931;-89
2023/11/29 09:09:47;;;;;;;;;;;;;;;;;;4163683;28;19924;-90
2023/11/29 09:11:49;;;;;;;;;;;;;;;;;;4182635;28;19925;-90
2023/11/29 09:13:50;;;;;;;;;;;;;;;;;;4134556;28;19922;-90
2023/11/29 09:15:52;;;;;;;;;;;;;;;;;;4164857;28;19921;-90
2023/11/29 09:17:54;;;;;;;;;;;;;;;;;;4148347;28;19921;-89
2023/11/29 09:19:55;;;;;;;;;;;;;;;;;;4165940;28;20383;-89
2023/11/29 09:21:57;;;;;;;;;;;;;;;;;;4147816;28;20031;-89
2023/11/29 09:23:58;;;;;;;;;;;;;;;;;;4148085;28;19956;-89
2023/11/29 09:26:00;;;;;;;;;;;;;;;;;;4132062;28;20020;-89
2023/11/29 09:28:06;;;;;;;;;;;;;;;;;;4165750;28;19921;-90
2023/11/29 09:30:08;;;;;;;;;;;;;;;;;;4148544;28;20007;-91
2023/11/29 09:32:09;;;;;;;;;;;;;;;;;;4148524;28;20387;-90
2023/11/29 09:34:11;;;;;;;;;;;;;;;;;;4148446;28;20028;-90
2023/11/29 09:36:15;;;;;;;;;;;;;;;;;;4165836;28;20020;-90
2023/11/29 09:38:17;;;;;;;;;;;;;;;;;;4165844;28;19921;-90
2023/11/29 09:40:19;;;;;;;;;;;;;;;;;;4148276;28;19922;-91
2023/11/29 09:42:21;;;;;;;;;;;;;;;;;;4147383;28;20357;-91
2023/11/29 09:44:23;;;;;;;;;;;;;;;;;;4131782;28;20336;-91
2023/11/29 09:46:26;;;;;;;;;;;;;;;;;;4165428;28;19929;-89
2023/11/29 09:48:27;;;;;;;;;;;;;;;;;;4165554;28;19920;-90
2023/11/29 09:50:33;;;;;;;;;;;;;;;;;;4148046;28;20284;-89
2023/11/29 09:52:34;;;;;;;;;;;;;;;;;;4147876;28;19921;-92
2023/11/29 09:54:36;;;;;;;;;;;;;;;;;;4147228;28;20324;-91
2023/11/29 09:56:37;;;;;;;;;;;;;;;;;;4149283;28;20015;-92
2023/11/29 09:58:39;;;;;;;;;;;;;;;;;;4148979;28;19921;-90
2023/11/29 10:00:40;;;;;;;;;;;;;;;;;;4135794;28;19925;-92
2023/11/29 10:02:42;;;;;;;;;;;;;;;;;;4163965;28;19964;-91
2023/11/29 10:04:44;;;;;;;;;;;;;;;;;;4147533;28;20043;-91
2023/11/29 10:06:46;;;;;;;;;;;;;;;;;;4180432;28;19925;-91
2023/11/29 10:08:47;;;;;;;;;;;;;;;;;;4152407;28;20303;-91
2023/11/29 10:10:50;;;;;;;;;;;;;;;;;;4147825;28;19925;-90
2023/11/29 10:12:52;;;;;;;;;;;;;;;;;;4147244;28;20304;-91
2023/11/29 10:14:54;;;;;;;;;;;;;;;;;;4131240;28;19928;-90
2023/11/29 10:17:01;;;;;;;;;;;;;;;;;;4147633;28;19921;-86
2023/11/29 10:19:03;;;;;;;;;;;;;;;;;;4164909;28;19920;-86
2023/11/29 10:21:05;;;;;;;;;;;;;;;;;;4165115;28;20308;-86
2023/11/29 10:23:09;;;;;;;;;;;;;;;;;;4148032;28;20008;-86
2023/11/29 10:25:11;;;;;;;;;;;;;;;;;;4147422;28;19921;-86
2023/11/29 10:27:13;;;;;;;;;;;;;;;;;;4164947;28;19925;-86
2023/11/29 10:29:14;;;;;;;;;;;;;;;;;;4165101;28;20648;-86
2023/11/29 10:31:16;;;;;;;;;;;;;;;;;;4147583;28;20020;-86
2023/11/29 10:33:17;;;;;;;;;;;;;;;;;;4147528;28;19925;-86
2023/11/29 10:35:19;;;;;;;;;;;;;;;;;;4164829;28;19972;-86
2023/11/29 10:37:21;;;;;;;;;;;;;;;;;;4165210;28;19927;-86
2023/11/29 10:39:24;;;;;;;;;;;;;;;;;;4147234;28;19922;-87
2023/11/29 10:41:25;;;;;;;;;;;;;;;;;;4164870;28;19921;-86
2023/11/29 10:43:27;;;;;;;;;;;;;;;;;;4164177;28;19929;-87
2023/11/29 10:45:29;;;;;;;;;;;;;;;;;;4164283;28;19975;-87
2023/11/29 10:47:30;;;;;;;;;;;;;;;;;;4164493;28;20031;-86
2023/11/29 10:49:32;;;;;;;;;;;;;;;;;;4130356;28;19972;-87
2023/11/29 10:51:33;;;;;;;;;;;;;;;;;;4146845;28;19925;-86
2023/11/29 10:53:35;;;;;;;;;;;;;;;;;;4164827;28;20323;-86
2023/11/29 10:55:39;;;;;;;;;;;;;;;;;;4146562;28;19925;-86
2023/11/29 10:57:41;;;;;;;;;;;;;;;;;;4147041;28;19929;-86
2023/11/29 10:59:42;;;;;;;;;;;;;;;;;;4146128;28;19929;-87
2023/11/29 11:01:44;;;;;;;;;;;;;;;;;;4162873;28;19921;-86
2023/11/29 11:03:45;;;;;;;;;;;;;;;;;;4145858;28;19929;-87
2023/11/29 11:05:49;;;;;;;;;;;;;;;;;;4156894;28;19996;-86
2023/11/29 11:07:52;;;;;;;;;;;;;;;;;;4150738;28;20416;-86
2023/11/29 11:09:59;;;;;;;;;;;;;;;;;;4153105;28;19924;-86
2023/11/29 11:12:00;;;;;;;;;;;;;;;;;;4146470;28;19968;-86
2023/11/29 11:14:03;;;;;;;;;;;;;;;;;;4163293;28;20364;-86
2023/11/29 11:16:05;;;;;;;;;;;;;;;;;;4163008;28;19982;-86
2023/11/29 11:18:07;;;;;;;;;;;;;;;;;;4164214;28;19932;-86
2023/11/29 11:20:09;;;;;;;;;;;;;;;;;;4164488;28;19925;-86
2023/11/29 11:22:11;;;;;;;;;;;;;;;;;;4145965;28;20426;-86
2023/11/29 11:24:12;;;;;;;;;;;;;;;;;;4165104;28;19921;-87
2023/11/29 11:26:14;;;;;;;;;;;;;;;;;;4164324;28;19932;-86
2023/11/29 11:28:15;;;;;;;;;;;;;;;;;;4165442;28;20317;-87
2023/11/29 11:30:17;;;;;;;;;;;;;;;;;;4166652;28;19925;-87
2023/11/29 11:32:18;;;;;;;;;;;;;;;;;;4163923;28;19979;-87
2023/11/29 11:34:20;;;;;;;;;;;;;;;;;;4163720;28;19963;-88
2023/11/29 11:36:21;;;;;;;;;;;;;;;;;;4162813;28;20303;-87
2023/11/29 11:38:23;;;;;;;;;;;;;;;;;;4163316;28;20023;-88
2023/11/29 11:40:25;;;;;;;;;;;;;;;;;;4164189;28;20019;-87
2023/11/29 11:42:26;;;;;;;;;;;;;;;;;;4163935;28;19925;-88
2023/11/29 11:44:28;;;;;;;;;;;;;;;;;;4164474;28;19929;-87
2023/11/29 11:46:29;;;;;;;;;;;;;;;;;;4147020;28;20370;-88
2023/11/29 11:48:31;;;;;;;;;;;;;;;;;;4146333;28;19971;-88
2023/11/29 11:50:33;;;;;;;;;;;;;;;;;;4164372;28;20273;-88
2023/11/29 11:52:35;;;;;;;;;;;;;;;;;;4146906;28;19952;-88
2023/11/29 11:54:37;;;;;;;;;;;;;;;;;;4164321;28;20301;-88
2023/11/29 11:56:38;;;;;;;;;;;;;;;;;;4161420;28;20628;-87
2023/11/29 11:58:40;;;;;;;;;;;;;;;;;;4144312;28;19926;-87
2023/11/29 12:00:41;;;;;;;;;;;;;;;;;;4166269;28;19979;-87
2023/11/29 12:02:43;;;;;;;;;;;;;;;;;;4152000;28;19944;-87
2023/11/29 12:04:45;;;;;;;;;;;;;;;;;;4161988;28;19921;-87
2023/11/29 12:06:46;;;;;;;;;;;;;;;;;;4155965;28;19927;-87
2023/11/29 12:08:48;;;;;;;;;;;;;;;;;;4159672;28;19960;-87
2023/11/29 12:10:49;;;;;;;;;;;;;;;;;;4150605;28;20285;-87
2023/11/29 12:12:51;;;;;;;;;;;;;;;;;;4157809;28;19924;-87
2023/11/29 12:14:52;;;;;;;;;;;;;;;;;;4151690;28;19971;-87
2023/11/29 12:16:54;;;;;;;;;;;;;;;;;;4162112;28;19925;-87
2023/11/29 12:18:56;;;;;;;;;;;;;;;;;;4160781;28;20377;-87
2023/11/29 12:20:57;;;;;;;;;;;;;;;;;;4158604;28;19932;-87
2023/11/29 12:22:59;;;;;;;;;;;;;;;;;;4151823;28;19963;-87
2023/11/29 12:25:01;;;;;;;;;;;;;;;;;;4163599;28;20530;-87
2023/11/29 12:27:02;;;;;;;;;;;;;;;;;;4165815;28;19928;-87
2023/11/29 12:29:04;;;;;;;;;;;;;;;;;;4166649;28;20304;-87
2023/11/29 12:31:05;;;;;;;;;;;;;;;;;;4166883;28;20004;-87
2023/11/29 12:33:07;;;;;;;;;;;;;;;;;;4166923;28;19924;-87
2023/11/29 12:35:09;;;;;;;;;;;;;;;;;;4166095;28;19925;-87
2023/11/29 12:37:12;;;;;;;;;;;;;;;;;;4158352;28;20432;-88
2023/11/29 12:39:13;;;;;;;;;;;;;;;;;;4165150;28;20375;-85
2023/11/29 12:41:15;;;;;;;;;;;;;;;;;;4148479;28;20258;-84
2023/11/29 12:43:18;;;;;;;;;;;;;;;;;;4147310;28;20340;-85
2023/11/29 12:47:47;;;;;;;;;;;;;;;;;;4116642;28;19922;-78
2023/11/29 12:49:49;;;;;;;;;;;;;;;;;;4084247;29;19929;-77
2023/11/29 12:51:50;;;;;;;;;;;;;;;;;;4117471;28;20437;-78
2023/11/29 12:53:52;;;;;;;;;;;;;;;;;;4116610;28;20023;-77
2023/11/29 12:55:55;;;;;;;;;;;;;;;;;;4116806;28;19922;-77
2023/11/29 12:57:57;;;;;;;;;;;;;;;;;;4116729;28;20439;-77
2023/11/29 13:00:00;;;;;;;;;;;;;;;;;;4116580;28;19930;-78
2023/11/29 13:02:04;;;;;;;;;;;;;;;;;;4112435;28;19922;-77
2023/11/29 13:04:06;;;;;;;;;;;;;;;;;;4132797;28;20421;-78
2023/11/29 13:08:36;;;;;;;;;;;;;;;;;;4084569;29;19927;-78
2023/11/29 13:10:38;;;;;;;;;;;;;;;;;;4067647;29;20445;-78
2023/11/29 13:12:40;;;;;;;;;;;;;;;;;;4083824;29;19974;-80
2023/11/29 13:14:42;;;;;;;;;;;;;;;;;;4097338;29;19922;-78
2023/11/29 13:16:44;;;;;;;;;;;;;;;;;;4099644;28;19923;-77
2023/11/29 13:18:45;;;;;;;;;;;;;;;;;;4099939;29;19926;-78
2023/11/29 13:20:48;;;;;;;;;;;;;;;;;;4097451;29;19958;-78
2023/11/29 13:22:51;;;;;;;;;;;;;;;;;;4064244;29;19930;-77
2023/11/29 13:24:53;;;;;;;;;;;;;;;;;;4084009;29;20033;-79
2023/11/29 13:26:55;;;;;;;;;;;;;;;;;;4084265;29;19923;-78
2023/11/29 13:28:56;;;;;;;;;;;;;;;;;;4083977;29;19930;-78
2023/11/29 13:33:26;;;;;;;;;;;;;;;;;;4052042;29;19924;-81
2023/11/29 13:35:28;;;;;;;;;;;;;;;;;;4036584;29;19928;-84
2023/11/29 13:37:30;;;;;;;;;;;;;;;;;;4051747;29;19934;-85
2023/11/29 13:39:34;;;;;;;;;;;;;;;;;;4049673;29;20589;-85
2023/11/29 13:41:36;;;;;;;;;;;;;;;;;;4050927;29;19923;-85
2023/11/29 13:43:37;;;;;;;;;;;;;;;;;;4050961;29;19975;-85
2023/11/29 13:45:39;;;;;;;;;;;;;;;;;;4073079;29;19929;-85
2023/11/29 13:47:40;;;;;;;;;;;;;;;;;;4099277;29;19938;-89
2023/11/29 13:49:42;;;;;;;;;;;;;;;;;;4083162;29;19923;-90
2023/11/29 13:51:46;;;;;;;;;;;;;;;;;;4098964;29;19945;-90
2023/11/29 13:53:47;;;;;;;;;;;;;;;;;;4098756;28;19930;-90
2023/11/29 13:55:49;;;;;;;;;;;;;;;;;;4098997;29;19962;-90
2023/11/29 13:57:50;;;;;;;;;;;;;;;;;;4095530;29;19926;-86
2023/11/29 13:59:52;;;;;;;;;;;;;;;;;;4083245;29;19923;-86